createdAt,value
2022-10-31T00:02:14.708Z,8.95
2022-10-31T00:07:18.320Z,9.68
2022-10-31T00:12:21.926Z,9.45
2022-10-31T00:17:26.733Z,8.77
2022-10-31T00:22:30.247Z,10.25
2022-10-31T00:27:33.720Z,9.43
2022-10-31T00:32:38.633Z,8.82
2022-10-31T00:37:42.140Z,9.38
2022-10-31T00:42:45.655Z,9.23
2022-10-31T00:47:50.487Z,9.05
2022-10-31T00:52:53.934Z,9.60
2022-10-31T00:57:58.056Z,9.40
2022-10-31T01:03:03.896Z,8.70
2022-10-31T01:08:07.491Z,10.00
2022-10-31T01:13:11.084Z,8.27
2022-10-31T01:18:15.960Z,9.55
2022-10-31T01:23:19.433Z,9.75
2022-10-31T01:33:34.375Z,7.88
2022-10-31T01:38:37.840Z,9.88
2022-10-31T01:43:46.701Z,7.70
2022-10-31T01:48:53.101Z,9.68
2022-10-31T01:53:59.530Z,10.50
2022-10-31T01:59:06.640Z,10.55
2022-10-31T02:04:12.485Z,10.90
2022-10-31T02:09:17.106Z,8.98
2022-10-31T02:14:23.088Z,11.10
2022-10-31T02:19:43.008Z,10.45
2022-10-31T02:24:56.707Z,11.68
2022-10-31T02:30:09.844Z,11.00
2022-10-31T02:35:27.201Z,10.98
2022-10-31T02:40:37.051Z,7.93
2022-10-31T02:46:08.919Z,9.65
2022-10-31T02:51:14.956Z,10.07
2022-10-31T02:56:21.278Z,10.32
2022-10-31T03:01:44.293Z,10.95
2022-10-31T03:06:55.419Z,10.23
2022-10-31T03:12:04.229Z,8.15
2022-10-31T03:17:11.736Z,11.07
2022-10-31T03:22:23.447Z,8.82
2022-10-31T03:27:31.913Z,10.07
2022-10-31T03:32:40.991Z,10.27
2022-10-31T03:37:48.599Z,10.45
2022-10-31T03:43:00.150Z,9.15
2022-10-31T03:48:04.408Z,9.77
2022-10-31T03:53:16.510Z,11.07
2022-10-31T03:58:24.720Z,11.48
2022-10-31T04:03:34.234Z,7.60
2022-10-31T04:08:44.877Z,10.82
2022-10-31T04:13:54.151Z,11.75
2022-10-31T04:18:59.662Z,12.60
2022-10-31T04:24:05.422Z,9.65
2022-10-31T04:29:08.946Z,12.70
2022-10-31T04:34:12.419Z,10.70
2022-10-31T04:39:22.666Z,12.23
2022-10-31T04:44:48.079Z,12.00
2022-10-31T04:49:52.878Z,12.60
2022-10-31T04:54:57.956Z,11.48
2022-10-31T05:00:22.002Z,12.50
2022-10-31T05:05:29.673Z,11.50
2022-10-31T05:10:34.625Z,12.38
2022-10-31T05:15:41.029Z,12.15
2022-10-31T05:21:03.076Z,13.15
2022-10-31T05:26:22.861Z,11.68
2022-10-31T05:31:26.327Z,13.85
2022-10-31T05:36:31.069Z,12.20
2022-10-31T05:41:38.360Z,12.57
2022-10-31T05:46:48.371Z,12.15
2022-10-31T05:51:51.774Z,12.80
2022-10-31T05:56:58.405Z,11.98
2022-10-31T06:02:02.160Z,11.05
2022-10-31T06:07:43.759Z,13.15
2022-10-31T06:12:49.491Z,13.98
2022-10-31T06:18:07.835Z,12.95
2022-10-31T06:23:16.175Z,12.35
2022-10-31T06:28:22.697Z,12.70
2022-10-31T06:33:47.931Z,10.50
2022-10-31T06:38:51.867Z,11.30
2022-10-31T06:44:04.897Z,12.90
2022-10-31T06:49:31.824Z,12.38
2022-10-31T06:54:39.219Z,12.55
2022-10-31T06:59:44.175Z,13.77
2022-10-31T07:04:53.588Z,12.32
2022-10-31T07:09:57.166Z,13.13
2022-10-31T07:15:18.440Z,12.18
2022-10-31T07:20:22.527Z,12.85
2022-10-31T07:25:26.979Z,11.90
2022-10-31T07:30:45.388Z,11.27
2022-10-31T07:35:50.294Z,13.77
2022-10-31T07:40:58.690Z,12.90
2022-10-31T07:46:07.055Z,12.48
2022-10-31T07:51:28.867Z,12.60
2022-10-31T07:56:55.478Z,12.00
2022-10-31T08:02:01.785Z,15.07
2022-10-31T08:07:08.467Z,13.10
2022-10-31T08:12:14.579Z,13.73
2022-10-31T08:17:19.651Z,15.50
2022-10-31T08:22:29.955Z,15.27
2022-10-31T08:27:33.656Z,18.48
2022-10-31T08:32:39.757Z,18.33
2022-10-31T08:38:11.370Z,16.80
2022-10-31T08:43:18.678Z,18.33
2022-10-31T08:48:23.881Z,19.23
2022-10-31T08:53:28.370Z,18.85
2022-10-31T08:58:53.348Z,20.65
2022-10-31T09:04:05.714Z,22.00
2022-10-31T09:09:09.549Z,22.85
2022-10-31T09:14:14.870Z,21.75
2022-10-31T09:19:22.443Z,24.52
2022-10-31T09:24:26.089Z,22.55
2022-10-31T09:29:30.360Z,19.50
2022-10-31T09:34:38.059Z,104.15
2022-10-31T09:39:48.705Z,27.35
2022-10-31T09:45:08.519Z,26.27
2022-10-31T09:50:22.848Z,26.60
2022-10-31T10:00:34.422Z,25.70
2022-10-31T10:05:47.863Z,29.75
2022-10-31T10:11:20.196Z,44.08
2022-10-31T10:17:03.802Z,30.70
2022-10-31T10:22:14.410Z,21.75
2022-10-31T10:27:26.006Z,28.85
2022-10-31T10:32:32.120Z,27.13
2022-10-31T10:37:42.797Z,30.38
2022-10-31T10:43:09.957Z,25.88
2022-10-31T10:48:17.697Z,24.20
2022-10-31T10:53:36.856Z,27.20
2022-10-31T10:58:42.739Z,28.35
2022-10-31T11:03:47.967Z,25.02
2022-10-31T11:08:53.479Z,25.27
2022-10-31T11:14:01.482Z,25.88
2022-10-31T11:19:17.019Z,26.58
2022-10-31T11:24:24.339Z,25.30
2022-10-31T11:29:28.253Z,41.33
2022-10-31T11:34:35.200Z,27.88
2022-10-31T11:39:44.453Z,24.83
2022-10-31T11:44:48.251Z,24.52
2022-10-31T11:49:52.158Z,28.17
2022-10-31T11:54:59.867Z,25.45
2022-10-31T12:00:07.902Z,27.40
2022-10-31T12:05:23.604Z,27.58
2022-10-31T12:10:36.556Z,28.52
2022-10-31T12:15:44.916Z,27.67
2022-10-31T12:21:00.909Z,27.30
2022-10-31T12:26:17.227Z,29.05
2022-10-31T12:31:32.440Z,26.85
2022-10-31T12:36:46.614Z,28.08
2022-10-31T12:41:55.270Z,29.55
2022-10-31T12:47:15.419Z,30.42
2022-10-31T12:52:32.360Z,28.25
2022-10-31T12:57:42.446Z,27.92
2022-10-31T13:02:53.985Z,29.73
2022-10-31T13:08:03.177Z,29.77
2022-10-31T13:13:15.248Z,27.63
2022-10-31T13:18:27.711Z,24.35
2022-10-31T13:23:50.279Z,27.90
2022-10-31T13:29:03.231Z,25.45
2022-10-31T13:34:17.627Z,27.05
2022-10-31T13:39:30.800Z,24.45
2022-10-31T13:44:39.644Z,24.30
2022-10-31T13:49:43.281Z,22.35
2022-10-31T13:54:48.952Z,23.13
2022-10-31T13:59:57.601Z,21.30
2022-10-31T14:05:04.275Z,23.23
2022-10-31T14:10:22.369Z,23.60
2022-10-31T14:15:29.957Z,21.85
2022-10-31T14:20:41.432Z,21.45
2022-10-31T14:25:45.203Z,22.20
2022-10-31T14:30:56.433Z,22.00
2022-10-31T14:36:06.847Z,22.58
2022-10-31T14:41:33.071Z,21.05
2022-10-31T14:46:52.237Z,21.33
2022-10-31T14:51:57.344Z,20.52
2022-10-31T14:57:06.291Z,20.85
2022-10-31T15:02:19.497Z,23.35
2022-10-31T15:07:25.549Z,21.38
2022-10-31T15:12:31.014Z,23.75
2022-10-31T15:17:35.965Z,23.17
2022-10-31T15:22:39.764Z,21.95
2022-10-31T15:27:52.227Z,21.98
2022-10-31T15:32:59.344Z,23.42
2022-10-31T15:38:03.587Z,21.20
2022-10-31T15:43:08.788Z,21.92
2022-10-31T15:48:19.316Z,20.90
2022-10-31T15:53:26.608Z,22.83
2022-10-31T15:58:32.767Z,22.67
2022-10-31T16:03:37.807Z,26.10
2022-10-31T16:08:50.471Z,23.27
2022-10-31T16:13:56.966Z,22.00
2022-10-31T16:19:07.568Z,21.15
2022-10-31T16:24:20.211Z,24.98
2022-10-31T16:29:29.205Z,22.40
2022-10-31T16:34:34.309Z,23.38
2022-10-31T16:39:37.937Z,22.42
2022-10-31T16:44:50.578Z,20.27
2022-10-31T16:49:55.700Z,19.35
2022-10-31T16:54:59.186Z,19.05
2022-10-31T17:00:03.141Z,25.85
2022-10-31T17:05:13.259Z,23.15
2022-10-31T17:10:17.507Z,20.98
2022-10-31T17:15:24.030Z,21.55
2022-10-31T17:20:31.567Z,18.58
2022-10-31T17:25:36.409Z,18.98
2022-10-31T17:30:40.684Z,21.55
2022-10-31T17:35:46.484Z,21.02
2022-10-31T17:40:50.243Z,23.15
2022-10-31T17:45:53.840Z,20.95
2022-10-31T17:51:02.704Z,21.13
2022-10-31T17:56:08.826Z,22.77
2022-10-31T18:01:16.185Z,21.70
2022-10-31T18:06:21.305Z,22.17
2022-10-31T18:11:25.414Z,22.25
2022-10-31T18:16:28.964Z,34.85
2022-10-31T18:21:34.340Z,21.63
2022-10-31T18:26:38.199Z,21.98
2022-10-31T18:31:41.790Z,20.23
2022-10-31T18:36:47.306Z,21.55
2022-10-31T18:41:50.911Z,19.48
2022-10-31T18:46:54.834Z,19.83
2022-10-31T18:52:00.007Z,21.50
2022-10-31T18:57:03.688Z,18.33
2022-10-31T19:02:07.903Z,18.70
2022-10-31T19:07:15.266Z,20.48
2022-10-31T19:12:19.165Z,18.25
2022-10-31T19:17:25.620Z,16.30
2022-10-31T19:22:31.974Z,16.73
2022-10-31T19:27:35.478Z,15.98
2022-10-31T19:32:39.355Z,16.25
2022-10-31T19:37:44.669Z,14.52
2022-10-31T19:42:48.472Z,15.20
2022-10-31T19:47:52.134Z,14.23
2022-10-31T19:52:57.150Z,14.82
2022-10-31T19:58:02.242Z,12.75
2022-10-31T20:03:07.198Z,13.75
2022-10-31T20:08:15.638Z,13.25
2022-10-31T20:13:19.284Z,10.90
2022-10-31T20:23:33.362Z,12.63
2022-10-31T20:28:41.423Z,10.88
2022-10-31T20:33:46.812Z,10.63
2022-10-31T20:38:53.272Z,11.02
2022-10-31T20:43:57.072Z,10.02
2022-10-31T20:49:00.758Z,9.65
2022-10-31T20:54:06.898Z,8.85
2022-10-31T20:59:11.328Z,8.30
2022-10-31T21:04:15.022Z,8.20
2022-10-31T21:09:20.000Z,8.50
2022-10-31T21:14:23.707Z,9.95
2022-10-31T21:19:27.382Z,9.98
2022-10-31T21:24:32.431Z,10.27
2022-10-31T21:29:36.030Z,11.77
2022-10-31T21:34:39.679Z,12.27
2022-10-31T21:39:49.759Z,13.13
2022-10-31T21:49:57.646Z,11.68
2022-10-31T21:55:02.641Z,11.57
2022-10-31T22:00:09.139Z,10.45
2022-10-31T22:05:13.256Z,9.20
2022-10-31T22:10:18.311Z,8.45
2022-10-31T22:15:23.369Z,7.82
2022-10-31T22:20:27.650Z,7.53
2022-10-31T22:25:32.462Z,8.90
2022-10-31T22:30:38.874Z,8.50
2022-10-31T22:35:42.314Z,7.68
2022-10-31T22:40:47.115Z,7.78
2022-10-31T22:45:55.380Z,7.30
2022-10-31T22:51:05.155Z,8.85
2022-10-31T22:56:12.346Z,7.43
2022-10-31T23:01:18.079Z,8.18
2022-10-31T23:06:25.835Z,8.93
2022-10-31T23:11:33.518Z,8.05
2022-10-31T23:16:38.411Z,7.28
2022-10-31T23:22:00.951Z,7.28
2022-10-31T23:27:10.885Z,6.63
2022-10-31T23:32:20.730Z,6.88
2022-10-31T23:37:27.170Z,7.13
2022-10-31T23:42:32.144Z,5.55
2022-10-31T23:47:38.362Z,6.05
2022-10-31T23:52:44.305Z,5.95
2022-10-31T23:57:49.112Z,7.15
